Time;durP1;ratioP1;P1;durP2;ratioP2;P2;SDS_P1;SDS_P2;PMS_P1;PMS_P2;Temp;Humidity;BMP_temperature;BMP_pressure;BME280_temperature;BME280_humidity;BME280_pressure;Samples;Min_cycle;Max_cycle;Signal;HPM_P1;HPM_P2
2022/08/03 00:00:00;;;;;;;6.15;3.65;;;21.70;99.90;;;;;;5013706;28;20499;-76
2022/08/03 00:02:26;;;;;;;7.50;4.25;;;21.70;99.90;;;;;;5014301;28;20032;-78
2022/08/03 00:04:52;;;;;;;4.25;3.58;;;21.70;99.90;;;;;;5014499;28;20081;-65
2022/08/03 00:07:18;;;;;;;6.13;4.10;;;21.70;99.90;;;;;;5014944;28;20029;-75
2022/08/03 00:09:44;;;;;;;7.57;3.70;;;21.60;99.90;;;;;;5015227;28;20030;-82
2022/08/03 00:12:10;;;;;;;7.53;3.85;;;21.60;99.90;;;;;;5015684;28;20045;-77
2022/08/03 00:14:36;;;;;;;7.25;4.10;;;21.60;99.90;;;;;;5011653;28;20026;-82
2022/08/03 00:17:02;;;;;;;5.60;4.15;;;21.60;99.90;;;;;;5014318;28;20026;-81
2022/08/03 00:19:28;;;;;;;9.27;3.97;;;21.50;99.90;;;;;;5013180;28;20421;-83
2022/08/03 00:21:53;;;;;;;6.03;4.10;;;21.60;99.90;;;;;;5014332;28;20169;-80
2022/08/03 00:24:20;;;;;;;6.93;3.60;;;21.60;99.90;;;;;;5015011;28;20065;-84
2022/08/03 00:26:46;;;;;;;12.57;3.28;;;21.60;99.90;;;;;;5014155;28;20080;-82
2022/08/03 00:29:11;;;;;;;6.45;4.05;;;21.70;99.90;;;;;;5014349;28;20041;-82
2022/08/03 00:31:37;;;;;;;4.18;3.15;;;21.70;99.90;;;;;;5015174;28;20388;-81
2022/08/03 00:34:03;;;;;;;4.53;3.42;;;21.60;99.90;;;;;;5014183;28;20030;-63
2022/08/03 00:36:29;;;;;;;5.95;3.80;;;21.60;99.90;;;;;;5014847;28;20014;-75
2022/08/03 00:38:55;;;;;;;6.45;4.20;;;21.40;99.90;;;;;;5015213;28;20028;-79
2022/08/03 00:41:21;;;;;;;7.38;3.83;;;21.30;99.90;;;;;;5013328;28;20022;-78
2022/08/03 00:43:47;;;;;;;8.68;4.75;;;21.30;99.90;;;;;;5013778;28;20104;-81
2022/08/03 00:46:13;;;;;;;8.57;4.18;;;21.30;99.90;;;;;;5012853;28;20038;-82
2022/08/03 00:48:39;;;;;;;10.85;4.00;;;21.30;99.90;;;;;;5011932;28;20064;-82
2022/08/03 00:51:05;;;;;;;7.15;3.90;;;21.20;99.90;;;;;;5012389;28;20050;-71
2022/08/03 00:53:33;;;;;;;5.75;4.07;;;21.20;99.90;;;;;;5012598;28;20022;-76
2022/08/03 00:55:59;;;;;;;5.90;4.13;;;21.30;99.90;;;;;;5012183;28;20068;-71
2022/08/03 00:58:25;;;;;;;14.40;4.65;;;21.30;99.90;;;;;;5012305;28;20404;-78
2022/08/03 01:00:51;;;;;;;6.38;3.90;;;21.20;99.90;;;;;;5012304;28;20014;-70
2022/08/03 01:03:17;;;;;;;5.68;3.60;;;21.20;99.90;;;;;;5012430;28;20071;-74
2022/08/03 01:05:56;;;;;;;8.43;4.70;;;21.20;99.90;;;;;;5011910;28;20603;-82
2022/08/03 01:08:36;;;;;;;8.68;4.68;;;21.20;99.90;;;;;;5011926;28;20046;-78
2022/08/03 01:11:08;;;;;;;8.85;4.70;;;21.20;99.90;;;;;;5012219;28;20034;-80
2022/08/03 01:13:42;;;;;;;7.35;4.18;;;21.20;99.90;;;;;;5011671;28;20030;-81
2022/08/03 01:16:16;;;;;;;6.38;4.20;;;21.10;99.90;;;;;;5011846;28;20571;-81
2022/08/03 01:18:59;;;;;;;8.15;4.70;;;21.00;99.90;;;;;;5011729;28;20071;-76
2022/08/03 01:21:30;;;;;;;9.65;4.82;;;21.00;99.90;;;;;;5011931;28;20037;-64
2022/08/03 01:24:17;;;;;;;10.20;4.68;;;21.10;99.90;;;;;;5011880;28;21139;-81
2022/08/03 01:27:17;;;;;;;7.32;5.13;;;21.00;99.90;;;;;;5012032;28;20026;-81
2022/08/03 01:29:55;;;;;;;8.50;5.28;;;20.90;99.90;;;;;;5011830;28;20044;-80
2022/08/03 01:32:41;;;;;;;10.98;5.55;;;21.00;99.90;;;;;;5012505;28;20022;-77
2022/08/03 01:35:15;;;;;;;9.00;5.72;;;20.90;99.90;;;;;;5009871;28;20049;-82
2022/08/03 01:37:50;;;;;;;9.52;5.55;;;20.90;99.90;;;;;;5011283;28;20119;-82
2022/08/03 01:40:18;;;;;;;10.48;5.60;;;20.80;99.90;;;;;;5011618;28;20034;-80
2022/08/03 01:42:46;;;;;;;12.25;5.50;;;20.80;99.90;;;;;;5011237;28;20499;-76
2022/08/03 01:45:14;;;;;;;10.88;6.05;;;20.80;99.90;;;;;;5011342;28;20058;-81
2022/08/03 01:47:43;;;;;;;9.07;5.22;;;20.80;99.90;;;;;;5011701;28;20121;-61
2022/08/03 01:50:10;;;;;;;9.10;5.30;;;20.80;99.90;;;;;;5011290;28;20041;-82
2022/08/03 01:52:42;;;;;;;9.93;5.25;;;20.80;99.90;;;;;;5011111;28;20349;-79
2022/08/03 01:55:10;;;;;;;9.30;4.95;;;20.70;99.90;;;;;;5011304;28;20100;-79
2022/08/03 01:57:38;;;;;;;10.50;5.30;;;20.70;99.90;;;;;;5011230;28;20028;-76
2022/08/03 02:00:08;;;;;;;8.27;5.28;;;20.60;99.90;;;;;;5010904;28;20109;-81
2022/08/03 02:02:39;;;;;;;8.48;5.18;;;20.60;99.90;;;;;;5010954;28;20036;-79
2022/08/03 02:05:07;;;;;;;8.88;5.70;;;20.60;99.90;;;;;;5011101;28;20025;-70
2022/08/03 02:07:35;;;;;;;8.15;5.38;;;20.50;99.90;;;;;;5011466;28;20046;-81
2022/08/03 02:10:03;;;;;;;11.00;5.35;;;20.60;99.90;;;;;;5011076;28;20038;-79
2022/08/03 02:12:31;;;;;;;10.68;5.47;;;20.50;99.90;;;;;;5011737;28;20025;-61
2022/08/03 02:14:59;;;;;;;9.50;4.97;;;20.40;99.90;;;;;;5012433;28;20479;-60
2022/08/03 02:17:26;;;;;;;10.45;5.07;;;20.50;99.90;;;;;;5010263;28;20468;-80
2022/08/03 02:19:55;;;;;;;8.80;5.38;;;20.50;99.90;;;;;;5000083;28;20080;-81
2022/08/03 02:22:23;;;;;;;9.00;5.38;;;20.50;99.90;;;;;;5012729;28;20499;-81
2022/08/03 02:24:49;;;;;;;9.43;5.18;;;20.40;99.90;;;;;;5012141;28;20041;-81
2022/08/03 02:27:20;;;;;;;7.43;4.95;;;20.30;99.90;;;;;;5011921;28;20022;-81
2022/08/03 02:29:51;;;;;;;9.15;5.60;;;20.30;99.90;;;;;;5005565;28;20127;-80
2022/08/03 02:32:23;;;;;;;5.72;4.30;;;20.30;99.90;;;;;;5012463;28;20025;-81
2022/08/03 02:34:51;;;;;;;6.43;5.20;;;20.30;99.90;;;;;;5013470;28;20492;-78
2022/08/03 02:37:20;;;;;;;8.60;5.10;;;20.20;99.90;;;;;;5011933;28;20046;-79
2022/08/03 02:39:48;;;;;;;10.57;5.10;;;20.20;99.90;;;;;;5012880;28;20028;-80
2022/08/03 02:42:15;;;;;;;6.85;5.13;;;20.30;99.90;;;;;;5012221;28;20484;-81
2022/08/03 02:44:46;;;;;;;9.02;5.47;;;20.30;99.90;;;;;;5011662;28;20042;-81
2022/08/03 02:47:14;;;;;;;9.80;5.00;;;20.20;99.90;;;;;;5012731;28;20562;-81
2022/08/03 02:49:41;;;;;;;10.43;5.90;;;20.20;99.90;;;;;;5024825;28;20419;-81
2022/08/03 02:52:12;;;;;;;10.77;5.50;;;20.10;99.90;;;;;;5021323;28;20033;-81
2022/08/03 02:54:38;;;;;;;9.60;6.10;;;20.10;99.90;;;;;;5005658;28;20025;-80
2022/08/03 02:57:07;;;;;;;7.38;5.32;;;20.20;99.90;;;;;;5012196;28;20030;-81
2022/08/03 02:59:35;;;;;;;11.23;5.85;;;20.20;99.90;;;;;;5002043;28;20101;-80
2022/08/03 03:02:02;;;;;;;9.23;5.32;;;20.30;99.90;;;;;;5011815;28;20022;-81
2022/08/03 03:04:29;;;;;;;12.13;6.05;;;20.30;99.90;;;;;;5010613;28;20069;-81
2022/08/03 03:06:56;;;;;;;9.45;5.43;;;20.20;99.90;;;;;;5023954;28;20430;-79
2022/08/03 03:09:23;;;;;;;9.15;5.70;;;20.30;99.90;;;;;;5012527;28;20041;-76
2022/08/03 03:11:50;;;;;;;8.52;5.57;;;20.30;99.90;;;;;;5007359;28;20018;-80
2022/08/03 03:14:18;;;;;;;11.13;5.65;;;20.30;99.90;;;;;;5006112;28;20034;-71
2022/08/03 03:16:45;;;;;;;11.75;5.60;;;20.30;99.90;;;;;;5012576;28;20434;-62
2022/08/03 03:19:14;;;;;;;9.68;4.93;;;20.30;99.90;;;;;;5012813;28;20044;-80
2022/08/03 03:21:42;;;;;;;10.27;5.55;;;20.30;99.90;;;;;;5012846;28;20468;-76
2022/08/03 03:24:09;;;;;;;7.88;5.40;;;20.30;99.90;;;;;;5002053;28;20030;-71
2022/08/03 03:26:35;;;;;;;9.38;5.55;;;20.30;99.90;;;;;;5015265;28;20472;-80
2022/08/03 03:29:02;;;;;;;10.35;6.32;;;20.30;99.90;;;;;;5011980;28;20045;-76
2022/08/03 03:31:28;;;;;;;8.43;5.82;;;20.20;99.90;;;;;;5000135;28;20023;-80
2022/08/03 03:33:56;;;;;;;9.35;5.75;;;20.20;99.90;;;;;;5011196;28;20037;-80
2022/08/03 03:36:22;;;;;;;7.95;5.40;;;20.20;99.90;;;;;;5012297;28;20168;-81
2022/08/03 03:38:48;;;;;;;9.70;5.10;;;20.20;99.90;;;;;;5017625;28;20104;-79
2022/08/03 03:41:14;;;;;;;11.95;6.25;;;20.20;99.90;;;;;;5015456;28;20022;-79
2022/08/03 03:43:40;;;;;;;7.70;4.93;;;20.50;99.90;;;;;;5014659;28;20053;-81
2022/08/03 03:46:06;;;;;;;10.35;5.40;;;20.70;99.90;;;;;;5015045;28;20495;-80
2022/08/03 03:48:32;;;;;;;10.73;5.72;;;21.00;99.90;;;;;;5015781;28;20480;-80
2022/08/03 03:50:59;;;;;;;9.15;5.43;;;21.30;99.90;;;;;;5004898;28;20113;-79
2022/08/03 03:53:25;;;;;;;10.18;5.38;;;21.90;99.90;;;;;;5010441;28;20034;-81
2022/08/03 03:55:53;;;;;;;9.07;5.45;;;22.20;99.90;;;;;;5009870;28;20084;-77
2022/08/03 03:58:20;;;;;;;10.98;5.53;;;22.60;99.90;;;;;;5014692;28;20029;-81
2022/08/03 04:00:46;;;;;;;7.55;4.57;;;23.10;99.90;;;;;;5007479;28;20105;-82
2022/08/03 04:03:12;;;;;;;10.00;5.60;;;23.50;99.90;;;;;;5008078;28;20113;-81
2022/08/03 04:11:27;;;;;;;9.55;5.15;;;;;;;;;;5011610;28;20108;-83
2022/08/03 04:14:01;;;;;;;9.98;4.63;;;25.30;98.40;;;;;;5023915;28;20037;-80
2022/08/03 04:16:30;;;;;;;8.57;5.50;;;;;;;;;;5012004;28;20104;-66
2022/08/03 04:19:03;;;;;;;7.10;5.07;;;26.70;93.90;;;;;;5011334;28;20030;-84
2022/08/03 04:21:31;;;;;;;6.55;4.75;;;26.70;93.10;;;;;;5007476;28;20125;-82
2022/08/03 04:24:00;;;;;;;13.30;4.57;;;26.90;99.90;;;;;;5010041;28;20026;-84
2022/08/03 04:26:30;;;;;;;7.78;4.93;;;27.30;99.90;;;;;;5000489;28;20033;-83
2022/08/03 04:28:57;;;;;;;8.25;4.72;;;27.50;93.90;;;;;;4997521;28;20034;-82
2022/08/03 04:31:24;;;;;;;12.10;4.57;;;27.80;92.90;;;;;;5012547;28;20113;-80
2022/08/03 04:33:52;;;;;;;7.10;4.65;;;27.90;86.30;;;;;;5010926;28;20108;-82
2022/08/03 04:36:21;;;;;;;8.00;4.50;;;27.40;87.10;;;;;;5013235;28;20021;-81
2022/08/03 04:39:12;;;;;;;5.57;4.65;;;27.70;87.50;;;;;;5013014;28;20518;-73
2022/08/03 04:41:39;;;;;;;6.78;4.60;;;28.00;86.30;;;;;;5011471;28;20126;-66
2022/08/03 04:44:07;;;;;;;7.75;4.90;;;28.00;86.70;;;;;;5007891;28;20054;-81
2022/08/03 04:46:38;;;;;;;9.60;5.78;;;28.10;86.20;;;;;;5003509;28;20026;-81
2022/08/03 04:49:05;;;;;;;9.18;4.93;;;;;;;;;;5013002;28;20076;-79
2022/08/03 04:51:33;;;;;;;10.15;5.25;;;28.20;84.80;;;;;;5007376;28;20032;-81
2022/08/03 04:54:00;;;;;;;5.43;4.35;;;28.60;83.20;;;;;;4998821;28;20399;-81
2022/08/03 04:56:26;;;;;;;6.07;3.92;;;29.20;82.40;;;;;;5004722;28;20018;-81
2022/08/03 04:58:52;;;;;;;5.43;4.00;;;29.50;80.20;;;;;;5011891;28;20089;-79
2022/08/03 05:01:21;;;;;;;7.00;4.30;;;;;;;;;;5012568;28;20090;-79
2022/08/03 05:03:47;;;;;;;8.00;3.80;;;29.10;79.00;;;;;;5007798;28;20037;-77
2022/08/03 05:06:13;;;;;;;7.30;3.95;;;29.20;79.70;;;;;;5001849;28;20030;-76
2022/08/03 05:08:39;;;;;;;7.00;4.18;;;29.30;80.70;;;;;;5005933;28;20042;-81
2022/08/03 05:11:05;;;;;;;9.45;3.33;;;;;;;;;;5012432;28;20273;-80
2022/08/03 05:13:31;;;;;;;6.88;3.70;;;27.20;99.90;;;;;;5009296;28;20371;-79
2022/08/03 05:15:57;;;;;;;5.22;3.53;;;;;;;;;;5010431;28;20022;-83
2022/08/03 05:18:23;;;;;;;5.93;3.53;;;26.30;99.90;;;;;;4995462;28;20129;-81
2022/08/03 05:20:49;;;;;;;4.78;3.47;;;26.10;98.50;;;;;;5001019;28;20117;-81
2022/08/03 05:23:15;;;;;;;6.85;3.75;;;;;;;;;;5013144;28;20040;-79
2022/08/03 05:25:41;;;;;;;9.70;3.83;;;25.40;95.90;;;;;;5009328;28;20022;-78
2022/08/03 05:28:07;;;;;;;5.00;3.72;;;;;;;;;;5012479;28;20040;-82
2022/08/03 05:30:33;;;;;;;5.43;3.35;;;24.90;97.50;;;;;;5020393;28;20065;-82
2022/08/03 05:32:58;;;;;;;6.03;4.13;;;25.00;98.50;;;;;;5005389;28;20063;-80
2022/08/03 05:35:25;;;;;;;7.55;4.47;;;25.20;98.50;;;;;;5009669;28;20079;-77
2022/08/03 05:37:51;;;;;;;6.70;4.40;;;25.20;98.50;;;;;;5008666;28;20030;-78
2022/08/03 05:40:16;;;;;;;7.10;3.80;;;25.10;98.30;;;;;;5012875;28;20025;-79
2022/08/03 05:42:42;;;;;;;7.15;4.13;;;25.00;98.60;;;;;;5002340;28;20041;-79
2022/08/03 05:45:17;;;;;;;6.03;3.85;;;25.10;98.30;;;;;;5012774;28;20412;-79
2022/08/03 05:47:46;;;;;;;9.55;4.45;;;;;;;;;;5009535;28;20022;-81
2022/08/03 05:50:13;;;;;;;7.88;4.72;;;25.00;98.70;;;;;;5011530;28;20107;-79
2022/08/03 05:52:40;;;;;;;7.00;3.80;;;25.00;99.10;;;;;;5003541;28;20413;-78
2022/08/03 05:55:07;;;;;;;7.40;4.13;;;25.20;99.90;;;;;;5011643;28;20034;-78
2022/08/03 05:57:33;;;;;;;6.20;4.43;;;25.30;99.70;;;;;;5004371;28;20033;-79
2022/08/03 06:00:01;;;;;;;10.43;4.45;;;25.20;99.90;;;;;;4999777;28;20033;-80
2022/08/03 06:02:37;;;;;;;9.32;3.50;;;25.30;99.90;;;;;;5012078;28;20068;-75
2022/08/03 06:05:03;;;;;;;5.53;3.47;;;25.20;99.90;;;;;;5012367;28;20053;-75
2022/08/03 06:07:30;;;;;;;5.78;3.67;;;25.20;99.90;;;;;;5007880;28;20018;-77
2022/08/03 06:09:56;;;;;;;13.63;4.20;;;25.60;99.90;;;;;;5004433;28;20538;-76
2022/08/03 06:12:22;;;;;;;4.47;3.20;;;25.60;99.90;;;;;;5007137;28;20034;-80
2022/08/03 06:14:48;;;;;;;7.07;3.35;;;25.70;99.20;;;;;;5006736;28;20030;-78
2022/08/03 06:17:13;;;;;;;5.57;3.55;;;25.70;98.90;;;;;;5016906;28;20113;-79
2022/08/03 06:19:39;;;;;;;8.18;3.88;;;25.70;98.20;;;;;;4997502;28;20014;-79
2022/08/03 06:22:05;;;;;;;5.00;3.33;;;25.80;99.80;;;;;;5008535;28;20550;-80
2022/08/03 06:24:31;;;;;;;5.85;3.15;;;25.80;99.20;;;;;;5012901;28;20014;-79
2022/08/03 06:26:57;;;;;;;4.80;3.20;;;25.90;99.10;;;;;;5012171;28;20126;-79
2022/08/03 06:29:23;;;;;;;5.15;3.90;;;25.80;99.40;;;;;;5002864;28;20105;-80
2022/08/03 06:31:49;;;;;;;9.35;3.65;;;26.10;97.30;;;;;;5012864;28;20014;-83
2022/08/03 06:34:15;;;;;;;10.45;3.88;;;26.10;96.20;;;;;;5012003;28;20033;-70
2022/08/03 06:36:41;;;;;;;6.53;3.50;;;26.30;96.10;;;;;;5006800;28;20482;-63
2022/08/03 06:39:07;;;;;;;7.30;3.83;;;;;;;;;;5009381;28;20026;-82
2022/08/03 06:41:33;;;;;;;7.13;3.42;;;26.80;99.90;;;;;;5003592;28;20039;-81
2022/08/03 06:43:59;;;;;;;8.98;4.95;;;26.70;99.90;;;;;;5011468;28;20435;-80
2022/08/03 06:46:25;;;;;;;7.05;4.10;;;26.40;99.90;;;;;;5011652;28;20065;-77
2022/08/03 06:48:51;;;;;;;9.20;4.28;;;26.70;99.90;;;;;;5016801;28;20066;-82
2022/08/03 06:51:16;;;;;;;6.90;3.70;;;26.60;99.90;;;;;;5008886;28;20018;-77
2022/08/03 06:53:42;;;;;;;8.13;3.80;;;26.80;99.90;;;;;;5015293;28;20029;-82
2022/08/03 06:56:08;;;;;;;8.45;3.58;;;26.80;99.90;;;;;;5001749;28;20022;-81
2022/08/03 06:58:34;;;;;;;9.52;3.60;;;;;;;;;;5007501;28;20026;-80
2022/08/03 07:01:00;;;;;;;7.85;3.60;;;27.30;99.90;;;;;;5014887;28;20029;-83
2022/08/03 07:03:26;;;;;;;8.05;3.47;;;27.50;99.90;;;;;;5015039;28;20088;-82
2022/08/03 07:05:52;;;;;;;6.55;3.55;;;27.60;92.00;;;;;;5027496;28;20470;-77
2022/08/03 07:08:18;;;;;;;7.07;3.88;;;27.60;91.70;;;;;;5011459;28;20045;-83
2022/08/03 07:10:44;;;;;;;8.05;4.15;;;27.80;89.00;;;;;;5007356;28;20014;-84
2022/08/03 07:13:11;;;;;;;5.13;2.80;;;28.00;87.40;;;;;;5015451;28;20053;-83
2022/08/03 07:15:36;;;;;;;6.47;3.72;;;28.00;88.40;;;;;;5008720;28;20033;-83
2022/08/03 07:18:02;;;;;;;6.05;3.40;;;28.20;87.70;;;;;;5006693;28;20038;-82
2022/08/03 07:20:28;;;;;;;5.28;2.50;;;28.10;96.60;;;;;;5012235;28;20022;-82
2022/08/03 07:22:54;;;;;;;4.60;2.88;;;;;;;;;;5015012;28;20113;-82
2022/08/03 07:25:21;;;;;;;11.23;2.97;;;28.40;84.20;;;;;;5013965;28;20025;-83
2022/08/03 07:27:47;;;;;;;7.60;3.40;;;28.50;83.60;;;;;;5029796;28;20034;-80
2022/08/03 07:30:14;;;;;;;8.38;3.22;;;28.90;96.00;;;;;;5011137;28;20034;-82
2022/08/03 07:32:41;;;;;;;10.35;3.50;;;28.80;92.90;;;;;;5002499;28;20028;-81
2022/08/03 07:35:09;;;;;;;6.38;3.08;;;29.00;92.70;;;;;;5012636;28;20427;-82
2022/08/03 07:37:35;;;;;;;7.50;3.67;;;29.20;95.30;;;;;;5014876;28;20058;-82
2022/08/03 07:40:03;;;;;;;6.38;4.00;;;28.90;81.80;;;;;;4999682;28;20065;-81
2022/08/03 07:42:30;;;;;;;6.30;3.38;;;28.80;81.90;;;;;;4998461;28;20030;-82
2022/08/03 07:44:59;;;;;;;6.22;3.30;;;28.80;96.70;;;;;;5002534;28;20042;-80
2022/08/03 07:47:28;;;;;;;7.82;3.47;;;29.00;97.80;;;;;;5015268;28;20740;-81
2022/08/03 07:49:54;;;;;;;4.15;2.67;;;28.90;99.80;;;;;;5003540;28;20031;-83
2022/08/03 07:53:02;;;;;;;6.38;3.40;;;29.20;81.20;;;;;;5016695;28;20108;-77
2022/08/03 07:55:10;;;;;;;6.43;3.30;;;29.40;79.40;;;;;;5011323;28;20053;-79
2022/08/03 07:57:36;;;;;;;6.72;3.25;;;29.70;80.00;;;;;;5027581;28;20018;-79
2022/08/03 08:00:05;;;;;;;4.38;3.15;;;29.70;78.90;;;;;;5013846;28;20468;-82
2022/08/03 08:02:40;;;;;;;10.02;4.10;;;29.50;77.80;;;;;;5013905;28;20113;-81
2022/08/03 08:05:06;;;;;;;5.95;3.50;;;29.60;77.90;;;;;;5019235;28;20029;-78
2022/08/03 08:07:32;;;;;;;7.57;3.67;;;29.70;77.40;;;;;;5020851;28;20032;-83
2022/08/03 08:09:58;;;;;;;4.78;2.80;;;29.70;78.30;;;;;;5019970;28;20571;-82
2022/08/03 08:12:24;;;;;;;6.47;3.60;;;29.70;76.30;;;;;;5001983;28;20134;-82
2022/08/03 08:14:50;;;;;;;6.85;3.20;;;29.80;76.00;;;;;;5014771;28;20030;-83
2022/08/03 08:17:16;;;;;;;5.00;3.20;;;30.00;76.20;;;;;;5014597;28;20519;-81
2022/08/03 08:19:41;;;;;;;12.32;3.13;;;29.90;74.90;;;;;;5020539;28;20029;-81
2022/08/03 08:22:07;;;;;;;6.55;2.97;;;29.70;74.70;;;;;;5020005;28;20033;-80
2022/08/03 08:24:33;;;;;;;4.95;2.63;;;29.90;74.80;;;;;;5014570;28;20072;-80
2022/08/03 08:27:00;;;;;;;4.55;3.13;;;29.50;74.30;;;;;;5014896;28;20068;-79
2022/08/03 08:29:26;;;;;;;6.68;3.17;;;29.50;75.70;;;;;;5013520;28;20033;-81
2022/08/03 08:31:52;;;;;;;8.35;2.63;;;29.90;75.80;;;;;;5022175;28;20457;-82
2022/08/03 08:34:18;;;;;;;7.47;2.85;;;30.10;74.00;;;;;;5014650;28;20113;-82
2022/08/03 08:36:43;;;;;;;3.88;2.42;;;30.00;71.60;;;;;;5013836;28;20022;-82
2022/08/03 08:39:10;;;;;;;5.32;3.17;;;;;;;;;;5012470;28;20049;-83
2022/08/03 08:41:37;;;;;;;6.75;3.13;;;;;;;;;;5012305;28;20018;-82
2022/08/03 08:44:03;;;;;;;5.28;2.38;;;;;;;;;;5012007;28;20057;-82
2022/08/03 08:46:33;;;;;;;5.38;2.38;;;30.80;85.00;;;;;;5013496;28;20033;-82
2022/08/03 08:48:59;;;;;;;3.75;2.60;;;31.20;70.60;;;;;;5012542;28;20041;-82
2022/08/03 08:51:33;;;;;;;6.25;2.95;;;31.40;70.10;;;;;;5016741;28;20021;-82
2022/08/03 08:54:06;;;;;;;3.88;2.55;;;31.30;69.90;;;;;;5016927;28;20111;-81
2022/08/03 08:56:32;;;;;;;7.10;2.83;;;31.60;69.10;;;;;;5019877;28;20033;-83
2022/08/03 08:58:59;;;;;;;5.82;3.08;;;31.70;68.50;;;;;;5016975;28;20025;-83
2022/08/03 09:01:26;;;;;;;6.20;3.03;;;31.70;68.40;;;;;;5003411;28;20034;-71
2022/08/03 09:03:53;;;;;;;8.05;3.00;;;32.00;67.70;;;;;;5011113;28;20022;-81
2022/08/03 09:06:20;;;;;;;5.80;2.88;;;31.60;66.90;;;;;;5016492;28;20032;-83
2022/08/03 09:08:46;;;;;;;16.13;3.15;;;31.70;67.80;;;;;;5020061;28;20029;-83
2022/08/03 09:11:11;;;;;;;39.85;9.70;;;31.40;66.20;;;;;;5013823;28;20369;-83
2022/08/03 09:13:38;;;;;;;7.25;3.13;;;31.70;66.70;;;;;;5011335;28;20030;-81
2022/08/03 09:16:18;;;;;;;30.88;7.43;;;31.60;65.30;;;;;;5013951;28;20030;-83
2022/08/03 09:18:49;;;;;;;7.60;3.53;;;31.60;66.50;;;;;;5013321;28;20034;-80
2022/08/03 09:21:17;;;;;;;9.00;3.50;;;31.40;65.70;;;;;;5013091;28;20048;-81
2022/08/03 09:23:44;;;;;;;6.55;2.92;;;31.50;64.80;;;;;;5012932;28;20558;-81
2022/08/03 09:26:10;;;;;;;6.93;3.05;;;31.40;64.80;;;;;;5013863;28;20467;-80
2022/08/03 09:28:36;;;;;;;5.40;3.03;;;31.50;64.10;;;;;;5013073;28;20056;-80
2022/08/03 09:31:02;;;;;;;4.00;2.83;;;;;;;;;;5013103;28;20030;-81
2022/08/03 09:33:29;;;;;;;7.97;3.13;;;;;;;;;;5012487;28;20026;-81
2022/08/03 09:35:55;;;;;;;5.70;3.10;;;32.30;63.30;;;;;;5012897;28;20079;-76
2022/08/03 09:38:24;;;;;;;3.85;3.00;;;32.50;65.50;;;;;;5013062;28;20506;-81
2022/08/03 09:40:51;;;;;;;10.25;3.95;;;32.80;64.20;;;;;;5012072;28;20069;-80
2022/08/03 09:43:17;;;;;;;9.13;3.28;;;32.80;62.10;;;;;;5012557;28;20042;-81
2022/08/03 09:45:43;;;;;;;13.50;4.03;;;32.60;62.10;;;;;;5012932;28;20080;-81
2022/08/03 09:48:26;;;;;;;6.43;2.88;;;32.50;61.80;;;;;;5011592;28;20044;-82
2022/08/03 09:50:55;;;;;;;6.55;3.17;;;32.20;59.90;;;;;;5010527;28;20053;-80
2022/08/03 09:53:21;;;;;;;3.60;2.80;;;31.80;60.90;;;;;;5009800;28;20057;-80
2022/08/03 09:55:50;;;;;;;4.63;2.78;;;31.90;60.10;;;;;;5010265;28;20476;-80
2022/08/03 09:58:16;;;;;;;4.78;2.45;;;32.00;60.30;;;;;;5011100;28;20109;-81
2022/08/03 10:00:54;;;;;;;7.15;3.08;;;32.30;60.80;;;;;;5012083;28;20108;-82
2022/08/03 10:03:20;;;;;;;17.15;3.95;;;31.90;60.50;;;;;;4999880;28;20080;-81
2022/08/03 10:05:46;;;;;;;3.85;3.00;;;32.20;61.00;;;;;;5011986;28;20029;-81
2022/08/03 10:08:17;;;;;;;5.38;2.92;;;32.50;61.30;;;;;;5012094;28;20026;-78
2022/08/03 10:10:47;;;;;;;7.53;2.85;;;32.10;61.30;;;;;;5012197;28;20034;-82
2022/08/03 10:13:14;;;;;;;12.57;3.25;;;32.30;60.50;;;;;;5012304;28;20033;-80
2022/08/03 10:15:40;;;;;;;5.18;3.05;;;32.40;59.90;;;;;;5012466;28;20046;-82
2022/08/03 10:18:07;;;;;;;42.90;6.25;;;31.70;59.80;;;;;;5012793;28;20113;-63
2022/08/03 10:20:50;;;;;;;3.97;2.58;;;32.20;60.40;;;;;;5012033;28;20045;-63
2022/08/03 10:23:18;;;;;;;5.35;3.17;;;32.00;61.50;;;;;;4997497;28;20026;-62
2022/08/03 10:25:47;;;;;;;9.80;3.88;;;32.00;61.10;;;;;;5011648;28;20065;-64
2022/08/03 10:28:17;;;;;;;6.22;3.20;;;32.40;60.80;;;;;;5011692;28;20092;-63
2022/08/03 10:30:47;;;;;;;4.32;2.90;;;32.40;60.40;;;;;;5012275;28;20042;-82
2022/08/03 10:33:20;;;;;;;5.55;3.17;;;32.40;60.20;;;;;;5011584;28;20076;-64
2022/08/03 10:35:53;;;;;;;5.15;2.88;;;32.30;60.60;;;;;;5012357;28;20483;-68
2022/08/03 10:38:26;;;;;;;5.85;3.15;;;32.30;60.20;;;;;;5011734;28;20472;-63
2022/08/03 10:40:56;;;;;;;4.93;2.42;;;32.30;60.60;;;;;;5011822;28;20033;-64
2022/08/03 10:43:30;;;;;;;3.97;2.72;;;32.10;59.70;;;;;;5012286;28;20065;-80
2022/08/03 10:45:56;;;;;;;4.05;2.85;;;32.20;60.00;;;;;;5012321;28;20084;-85
2022/08/03 10:48:23;;;;;;;4.43;2.78;;;32.10;60.20;;;;;;5011522;28;20122;-82
2022/08/03 10:50:49;;;;;;;4.53;2.90;;;32.10;60.50;;;;;;5011213;28;20037;-76
2022/08/03 10:53:15;;;;;;;8.18;2.60;;;32.20;60.40;;;;;;5011235;28;20022;-79
2022/08/03 10:58:37;;;;;;;8.70;3.83;;;32.40;59.50;;;;;;5002224;28;20104;-77
2022/08/03 11:01:07;;;;;;;7.47;3.35;;;32.50;59.90;;;;;;5008725;28;20136;-82
2022/08/03 11:03:54;;;;;;;3.92;2.83;;;32.70;59.60;;;;;;5009245;28;20062;-80
2022/08/03 11:06:23;;;;;;;3.40;2.92;;;32.40;59.80;;;;;;5010084;28;20037;-80
2022/08/03 11:09:09;;;;;;;4.60;3.25;;;32.50;61.30;;;;;;5009779;28;20148;-78
2022/08/03 11:11:36;;;;;;;5.10;2.90;;;32.80;60.20;;;;;;5010322;28;20479;-79
2022/08/03 11:14:18;;;;;;;3.90;3.28;;;32.70;59.20;;;;;;5011560;28;20072;-80
2022/08/03 11:16:46;;;;;;;4.22;3.05;;;32.50;58.30;;;;;;5011156;28;20388;-80
2022/08/03 11:19:21;;;;;;;4.95;2.65;;;32.50;59.30;;;;;;5011741;28;20022;-81
2022/08/03 11:21:49;;;;;;;4.68;3.17;;;32.80;59.00;;;;;;5010962;28;20034;-77
2022/08/03 11:24:40;;;;;;;6.85;2.95;;;32.80;59.60;;;;;;5011626;28;20025;-76
2022/08/03 11:27:27;;;;;;;11.38;3.05;;;32.80;58.70;;;;;;5011012;28;20030;-75
2022/08/03 11:30:09;;;;;;;5.32;2.58;;;32.80;59.20;;;;;;5011152;28;20054;-76
2022/08/03 11:32:47;;;;;;;4.97;2.83;;;32.70;58.20;;;;;;5011042;28;20022;-73
2022/08/03 11:35:20;;;;;;;7.88;3.20;;;32.60;58.90;;;;;;5015355;28;20057;-70
2022/08/03 11:38:05;;;;;;;4.40;2.85;;;32.90;59.80;;;;;;5016346;28;20389;-80
2022/08/03 11:40:37;;;;;;;4.20;3.05;;;32.80;60.00;;;;;;5013851;28;20022;-78
2022/08/03 11:43:06;;;;;;;4.20;2.80;;;32.80;58.50;;;;;;5014699;28;20038;-79
2022/08/03 11:45:32;;;;;;;4.40;3.10;;;32.70;58.60;;;;;;5014468;28;20485;-76
2022/08/03 11:48:01;;;;;;;4.18;3.05;;;32.90;58.50;;;;;;5014916;28;20896;-75
2022/08/03 11:50:36;;;;;;;4.40;2.97;;;32.80;57.90;;;;;;5014615;28;20042;-79
2022/08/03 11:53:04;;;;;;;7.18;3.03;;;33.00;58.80;;;;;;5000711;28;20380;-75
2022/08/03 11:55:30;;;;;;;5.97;3.20;;;32.80;56.70;;;;;;5014881;28;20026;-80
2022/08/03 11:57:59;;;;;;;3.28;2.65;;;32.70;57.00;;;;;;5014512;28;20033;-79
2022/08/03 12:00:31;;;;;;;5.18;3.03;;;33.10;58.40;;;;;;5045910;28;20425;-81
2022/08/03 12:03:00;;;;;;;4.30;3.00;;;33.40;57.00;;;;;;5014928;28;20026;-77
2022/08/03 12:05:55;;;;;;;8.93;3.10;;;33.30;57.30;;;;;;5014458;28;20022;-73
2022/08/03 12:08:27;;;;;;;8.77;3.28;;;33.50;57.10;;;;;;5031903;28;20136;-75
2022/08/03 12:10:55;;;;;;;5.45;3.17;;;33.60;58.50;;;;;;5028469;28;20124;-77
2022/08/03 12:13:22;;;;;;;5.00;3.20;;;33.50;57.40;;;;;;5021044;28;20034;-79
2022/08/03 12:15:53;;;;;;;5.38;2.92;;;33.50;58.60;;;;;;5032064;28;20111;-80
2022/08/03 12:18:20;;;;;;;5.38;2.85;;;33.50;58.30;;;;;;5031371;28;20037;-79
2022/08/03 12:20:48;;;;;;;7.35;3.15;;;33.20;58.50;;;;;;5031745;28;20095;-77
2022/08/03 12:23:14;;;;;;;5.60;3.53;;;33.30;58.90;;;;;;5031397;28;20037;-78
2022/08/03 12:25:42;;;;;;;5.50;2.90;;;33.30;58.00;;;;;;5031010;28;20034;-77
2022/08/03 12:28:17;;;;;;;6.88;3.13;;;33.70;59.20;;;;;;5031546;28;20029;-77
2022/08/03 12:30:46;;;;;;;4.07;3.53;;;34.10;62.50;;;;;;5037395;28;20043;-79
2022/08/03 12:33:18;;;;;;;4.32;2.60;;;33.70;58.40;;;;;;5031433;28;20141;-75
2022/08/03 12:35:46;;;;;;;4.63;3.08;;;33.60;57.30;;;;;;5032282;28;20108;-81
2022/08/03 12:38:17;;;;;;;4.90;2.60;;;33.50;57.90;;;;;;5031908;28;20055;-82
2022/08/03 12:40:43;;;;;;;6.35;3.50;;;33.60;57.70;;;;;;5031231;28;20065;-80
2022/08/03 12:43:13;;;;;;;4.00;2.80;;;;;;;;;;5028902;28;20056;-79
2022/08/03 12:45:39;;;;;;;5.45;3.05;;;33.60;57.40;;;;;;5007701;28;20420;-78
2022/08/03 12:48:09;;;;;;;5.30;2.83;;;33.50;58.20;;;;;;5004697;28;20073;-78
2022/08/03 12:50:36;;;;;;;8.27;3.65;;;33.50;59.40;;;;;;5010574;28;20494;-82
2022/08/03 12:53:05;;;;;;;4.90;3.17;;;33.50;58.80;;;;;;5013855;28;20303;-82
2022/08/03 12:55:35;;;;;;;5.95;3.33;;;;;;;;;;5000019;28;20018;-82
2022/08/03 12:58:05;;;;;;;4.18;2.92;;;33.00;58.30;;;;;;5013067;28;20018;-76
2022/08/03 13:00:31;;;;;;;6.03;3.83;;;32.80;59.30;;;;;;5013367;28;20495;-81
2022/08/03 13:02:59;;;;;;;7.05;2.88;;;;;;;;;;5011791;28;20029;-81
2022/08/03 13:05:25;;;;;;;6.20;3.20;;;32.70;73.80;;;;;;5004636;28;20026;-81
2022/08/03 13:07:51;;;;;;;8.13;3.30;;;;;;;;;;5005896;28;20025;-83